sensor_id;sensor_type;location;lat;lon;timestamp;temperature;humidity
7936;DHT22;4013;49.744;8.118;2023-07-09T00:01:13;20.10;99.90
7936;DHT22;4013;49.744;8.118;2023-07-09T00:03:42;20.10;99.90
7936;DHT22;4013;49.744;8.118;2023-07-09T00:06:11;20.10;99.90
7936;DHT22;4013;49.744;8.118;2023-07-09T00:08:42;20.00;99.90
7936;DHT22;4013;49.744;8.118;2023-07-09T00:11:12;19.90;99.90
7936;DHT22;4013;49.744;8.118;2023-07-09T00:13:40;19.90;99.90
7936;DHT22;4013;49.744;8.118;2023-07-09T00:16:12;19.90;99.90
7936;DHT22;4013;49.744;8.118;2023-07-09T00:18:40;19.80;99.90
7936;DHT22;4013;49.744;8.118;2023-07-09T00:21:07;19.70;99.90
7936;DHT22;4013;49.744;8.118;2023-07-09T00:23:34;19.60;99.90
7936;DHT22;4013;49.744;8.118;2023-07-09T00:26:02;19.70;99.90
7936;DHT22;4013;49.744;8.118;2023-07-09T00:28:29;19.60;99.90
7936;DHT22;4013;49.744;8.118;2023-07-09T00:30:57;19.50;99.90
7936;DHT22;4013;49.744;8.118;2023-07-09T00:33:24;19.50;99.90
7936;DHT22;4013;49.744;8.118;2023-07-09T00:35:57;19.50;99.90
7936;DHT22;4013;49.744;8.118;2023-07-09T00:38:24;19.40;99.90
7936;DHT22;4013;49.744;8.118;2023-07-09T00:41:01;19.40;99.90
7936;DHT22;4013;49.744;8.118;2023-07-09T00:43:31;19.40;99.90
7936;DHT22;4013;49.744;8.118;2023-07-09T00:49:07;19.50;99.90
7936;DHT22;4013;49.744;8.118;2023-07-09T00:51:38;19.50;99.90
7936;DHT22;4013;49.744;8.118;2023-07-09T00:54:11;19.50;99.90
7936;DHT22;4013;49.744;8.118;2023-07-09T00:56:42;19.50;99.90
7936;DHT22;4013;49.744;8.118;2023-07-09T00:59:15;19.50;99.90
7936;DHT22;4013;49.744;8.118;2023-07-09T01:01:44;19.50;99.90
7936;DHT22;4013;49.744;8.118;2023-07-09T01:04:19;19.50;99.90
7936;DHT22;4013;49.744;8.118;2023-07-09T01:06:51;19.40;99.90
7936;DHT22;4013;49.744;8.118;2023-07-09T01:09:21;19.40;99.90
7936;DHT22;4013;49.744;8.118;2023-07-09T01:11:48;19.40;99.90
7936;DHT22;4013;49.744;8.118;2023-07-09T01:14:18;19.30;99.90
7936;DHT22;4013;49.744;8.118;2023-07-09T01:16:49;19.30;99.90
7936;DHT22;4013;49.744;8.118;2023-07-09T01:19:24;19.20;99.90
7936;DHT22;4013;49.744;8.118;2023-07-09T01:21:55;19.20;99.90
7936;DHT22;4013;49.744;8.118;2023-07-09T01:24:51;19.30;99.90
7936;DHT22;4013;49.744;8.118;2023-07-09T01:27:20;19.30;99.90
7936;DHT22;4013;49.744;8.118;2023-07-09T01:29:47;19.30;99.90
7936;DHT22;4013;49.744;8.118;2023-07-09T01:32:15;19.20;99.90
7936;DHT22;4013;49.744;8.118;2023-07-09T01:34:44;19.30;99.90
7936;DHT22;4013;49.744;8.118;2023-07-09T01:37:16;19.40;99.90
7936;DHT22;4013;49.744;8.118;2023-07-09T01:39:43;19.40;99.90
7936;DHT22;4013;49.744;8.118;2023-07-09T01:42:10;19.40;99.90
7936;DHT22;4013;49.744;8.118;2023-07-09T01:44:39;19.40;99.90
7936;DHT22;4013;49.744;8.118;2023-07-09T01:47:07;19.50;99.90
7936;DHT22;4013;49.744;8.118;2023-07-09T01:49:34;19.40;99.90
7936;DHT22;4013;49.744;8.118;2023-07-09T01:52:02;19.30;99.90
7936;DHT22;4013;49.744;8.118;2023-07-09T01:54:31;19.40;99.90
7936;DHT22;4013;49.744;8.118;2023-07-09T01:57:14;19.30;99.90
7936;DHT22;4013;49.744;8.118;2023-07-09T01:59:41;19.30;99.90
7936;DHT22;4013;49.744;8.118;2023-07-09T02:02:10;19.30;99.90
7936;DHT22;4013;49.744;8.118;2023-07-09T02:04:46;19.30;99.90
7936;DHT22;4013;49.744;8.118;2023-07-09T02:07:13;19.30;99.90
7936;DHT22;4013;49.744;8.118;2023-07-09T02:09:42;19.20;99.90
7936;DHT22;4013;49.744;8.118;2023-07-09T02:12:10;19.20;99.90
7936;DHT22;4013;49.744;8.118;2023-07-09T02:14:37;19.20;99.90
7936;DHT22;4013;49.744;8.118;2023-07-09T02:17:04;19.30;99.90
7936;DHT22;4013;49.744;8.118;2023-07-09T02:19:32;19.50;99.90
7936;DHT22;4013;49.744;8.118;2023-07-09T02:21:59;19.20;99.90
7936;DHT22;4013;49.744;8.118;2023-07-09T02:24:26;19.20;99.90
7936;DHT22;4013;49.744;8.118;2023-07-09T02:26:55;19.10;99.90
7936;DHT22;4013;49.744;8.118;2023-07-09T02:29:23;19.00;99.90
7936;DHT22;4013;49.744;8.118;2023-07-09T02:31:52;19.00;99.90
7936;DHT22;4013;49.744;8.118;2023-07-09T02:34:20;18.90;99.90
7936;DHT22;4013;49.744;8.118;2023-07-09T02:36:51;18.90;99.90
7936;DHT22;4013;49.744;8.118;2023-07-09T02:39:18;18.80;99.90
7936;DHT22;4013;49.744;8.118;2023-07-09T02:41:45;18.80;99.90
7936;DHT22;4013;49.744;8.118;2023-07-09T02:44:14;18.80;99.90
7936;DHT22;4013;49.744;8.118;2023-07-09T02:46:42;18.80;99.90
7936;DHT22;4013;49.744;8.118;2023-07-09T02:49:10;18.70;99.90
7936;DHT22;4013;49.744;8.118;2023-07-09T02:51:37;18.70;99.90
7936;DHT22;4013;49.744;8.118;2023-07-09T02:54:05;18.70;99.90
7936;DHT22;4013;49.744;8.118;2023-07-09T02:56:32;18.70;99.90
7936;DHT22;4013;49.744;8.118;2023-07-09T02:58:59;18.70;99.90
7936;DHT22;4013;49.744;8.118;2023-07-09T03:01:28;18.70;99.90
7936;DHT22;4013;49.744;8.118;2023-07-09T03:03:55;18.70;99.90
7936;DHT22;4013;49.744;8.118;2023-07-09T03:06:23;18.70;99.90
7936;DHT22;4013;49.744;8.118;2023-07-09T03:08:51;18.70;99.90
7936;DHT22;4013;49.744;8.118;2023-07-09T03:11:19;18.70;99.90
7936;DHT22;4013;49.744;8.118;2023-07-09T03:13:47;18.80;99.90
7936;DHT22;4013;49.744;8.118;2023-07-09T03:16:14;18.80;99.90
7936;DHT22;4013;49.744;8.118;2023-07-09T03:18:42;18.70;99.90
7936;DHT22;4013;49.744;8.118;2023-07-09T03:21:09;18.70;99.90
7936;DHT22;4013;49.744;8.118;2023-07-09T03:23:36;18.70;99.90
7936;DHT22;4013;49.744;8.118;2023-07-09T03:26:03;18.60;99.90
7936;DHT22;4013;49.744;8.118;2023-07-09T03:28:31;18.60;99.90
7936;DHT22;4013;49.744;8.118;2023-07-09T03:30:58;18.70;99.90
7936;DHT22;4013;49.744;8.118;2023-07-09T03:33:25;18.70;99.90
7936;DHT22;4013;49.744;8.118;2023-07-09T03:35:54;18.80;99.90
7936;DHT22;4013;49.744;8.118;2023-07-09T03:38:21;18.80;99.90
7936;DHT22;4013;49.744;8.118;2023-07-09T03:40:50;18.80;99.90
7936;DHT22;4013;49.744;8.118;2023-07-09T03:43:17;18.90;99.90
7936;DHT22;4013;49.744;8.118;2023-07-09T03:45:45;19.00;99.90
7936;DHT22;4013;49.744;8.118;2023-07-09T03:48:13;18.90;99.90
7936;DHT22;4013;49.744;8.118;2023-07-09T03:50:42;19.00;99.90
7936;DHT22;4013;49.744;8.118;2023-07-09T03:53:11;19.00;99.90
7936;DHT22;4013;49.744;8.118;2023-07-09T03:55:39;19.00;99.90
7936;DHT22;4013;49.744;8.118;2023-07-09T03:58:06;19.10;99.90
7936;DHT22;4013;49.744;8.118;2023-07-09T04:00:34;19.10;99.90
7936;DHT22;4013;49.744;8.118;2023-07-09T04:03:01;19.10;99.90
7936;DHT22;4013;49.744;8.118;2023-07-09T04:05:28;19.10;99.90
7936;DHT22;4013;49.744;8.118;2023-07-09T04:07:55;18.90;99.90
7936;DHT22;4013;49.744;8.118;2023-07-09T04:10:23;18.90;99.90
7936;DHT22;4013;49.744;8.118;2023-07-09T04:12:50;18.80;99.90
7936;DHT22;4013;49.744;8.118;2023-07-09T04:15:18;18.80;99.90
7936;DHT22;4013;49.744;8.118;2023-07-09T04:17:44;18.80;99.90
7936;DHT22;4013;49.744;8.118;2023-07-09T04:20:12;18.70;99.90
7936;DHT22;4013;49.744;8.118;2023-07-09T04:22:39;18.80;99.90
7936;DHT22;4013;49.744;8.118;2023-07-09T04:25:09;18.90;99.90
7936;DHT22;4013;49.744;8.118;2023-07-09T04:27:38;18.90;99.90
7936;DHT22;4013;49.744;8.118;2023-07-09T04:30:07;19.10;99.90
7936;DHT22;4013;49.744;8.118;2023-07-09T04:32:36;19.20;99.90
7936;DHT22;4013;49.744;8.118;2023-07-09T04:35:04;19.40;99.90
7936;DHT22;4013;49.744;8.118;2023-07-09T04:37:32;19.50;99.90
7936;DHT22;4013;49.744;8.118;2023-07-09T04:39:59;19.60;99.90
7936;DHT22;4013;49.744;8.118;2023-07-09T04:42:26;19.70;99.90
7936;DHT22;4013;49.744;8.118;2023-07-09T04:44:54;19.80;99.90
7936;DHT22;4013;49.744;8.118;2023-07-09T04:47:21;19.80;99.90
7936;DHT22;4013;49.744;8.118;2023-07-09T04:49:48;19.80;99.90
7936;DHT22;4013;49.744;8.118;2023-07-09T04:52:15;19.80;99.90
7936;DHT22;4013;49.744;8.118;2023-07-09T04:54:42;20.00;99.90
7936;DHT22;4013;49.744;8.118;2023-07-09T04:57:10;20.10;99.90
7936;DHT22;4013;49.744;8.118;2023-07-09T04:59:37;20.00;99.90
7936;DHT22;4013;49.744;8.118;2023-07-09T05:02:06;20.00;99.90
7936;DHT22;4013;49.744;8.118;2023-07-09T05:04:35;20.10;99.90
7936;DHT22;4013;49.744;8.118;2023-07-09T05:07:02;20.20;99.90
7936;DHT22;4013;49.744;8.118;2023-07-09T05:09:29;20.20;99.90
7936;DHT22;4013;49.744;8.118;2023-07-09T05:11:55;20.10;99.90
7936;DHT22;4013;49.744;8.118;2023-07-09T05:14:22;20.00;99.90
7936;DHT22;4013;49.744;8.118;2023-07-09T05:16:49;20.20;99.90
7936;DHT22;4013;49.744;8.118;2023-07-09T05:19:18;20.30;99.90
7936;DHT22;4013;49.744;8.118;2023-07-09T05:21:44;20.40;99.90
7936;DHT22;4013;49.744;8.118;2023-07-09T05:24:11;20.40;99.90
7936;DHT22;4013;49.744;8.118;2023-07-09T05:26:38;20.40;99.90
7936;DHT22;4013;49.744;8.118;2023-07-09T05:29:05;20.50;99.90
7936;DHT22;4013;49.744;8.118;2023-07-09T05:31:33;20.70;99.90
7936;DHT22;4013;49.744;8.118;2023-07-09T05:34:01;20.80;99.90
7936;DHT22;4013;49.744;8.118;2023-07-09T05:36:30;21.00;99.90
7936;DHT22;4013;49.744;8.118;2023-07-09T05:38:57;21.00;99.90
7936;DHT22;4013;49.744;8.118;2023-07-09T05:41:24;21.10;99.90
7936;DHT22;4013;49.744;8.118;2023-07-09T05:43:52;21.20;99.90
7936;DHT22;4013;49.744;8.118;2023-07-09T05:46:21;21.20;99.90
7936;DHT22;4013;49.744;8.118;2023-07-09T05:48:48;21.30;99.90
7936;DHT22;4013;49.744;8.118;2023-07-09T05:51:15;21.20;99.90
7936;DHT22;4013;49.744;8.118;2023-07-09T05:53:43;21.30;99.90
7936;DHT22;4013;49.744;8.118;2023-07-09T05:56:10;21.40;99.90
7936;DHT22;4013;49.744;8.118;2023-07-09T05:58:37;21.30;99.90
7936;DHT22;4013;49.744;8.118;2023-07-09T06:01:04;21.30;99.90
7936;DHT22;4013;49.744;8.118;2023-07-09T06:03:31;21.30;99.90
7936;DHT22;4013;49.744;8.118;2023-07-09T06:05:59;21.50;99.90
7936;DHT22;4013;49.744;8.118;2023-07-09T06:08:26;21.70;99.90
7936;DHT22;4013;49.744;8.118;2023-07-09T06:10:57;21.90;99.90
7936;DHT22;4013;49.744;8.118;2023-07-09T06:13:25;22.10;99.90
7936;DHT22;4013;49.744;8.118;2023-07-09T06:15:53;22.20;99.90
7936;DHT22;4013;49.744;8.118;2023-07-09T06:18:21;22.40;99.90
7936;DHT22;4013;49.744;8.118;2023-07-09T06:20:50;22.60;99.90
7936;DHT22;4013;49.744;8.118;2023-07-09T06:23:17;22.70;99.90
7936;DHT22;4013;49.744;8.118;2023-07-09T06:25:45;22.70;99.90
7936;DHT22;4013;49.744;8.118;2023-07-09T06:28:16;22.80;99.90
7936;DHT22;4013;49.744;8.118;2023-07-09T06:30:43;23.00;99.90
7936;DHT22;4013;49.744;8.118;2023-07-09T06:33:12;23.10;99.90
7936;DHT22;4013;49.744;8.118;2023-07-09T06:35:45;23.30;99.90
7936;DHT22;4013;49.744;8.118;2023-07-09T06:38:12;23.40;99.90
7936;DHT22;4013;49.744;8.118;2023-07-09T06:40:39;23.60;99.90
7936;DHT22;4013;49.744;8.118;2023-07-09T06:43:06;23.70;99.90
7936;DHT22;4013;49.744;8.118;2023-07-09T06:45:34;23.80;99.90
7936;DHT22;4013;49.744;8.118;2023-07-09T06:48:01;24.00;99.90
7936;DHT22;4013;49.744;8.118;2023-07-09T06:50:32;24.20;99.90
7936;DHT22;4013;49.744;8.118;2023-07-09T06:52:59;24.30;99.90
7936;DHT22;4013;49.744;8.118;2023-07-09T06:55:26;24.30;99.90
7936;DHT22;4013;49.744;8.118;2023-07-09T06:57:53;24.50;99.90
7936;DHT22;4013;49.744;8.118;2023-07-09T07:00:20;24.50;99.90
7936;DHT22;4013;49.744;8.118;2023-07-09T07:02:49;24.60;99.90
7936;DHT22;4013;49.744;8.118;2023-07-09T07:05:17;24.60;99.90
7936;DHT22;4013;49.744;8.118;2023-07-09T07:07:44;24.70;99.90
7936;DHT22;4013;49.744;8.118;2023-07-09T07:10:11;24.80;99.90
7936;DHT22;4013;49.744;8.118;2023-07-09T07:12:43;24.90;99.90
7936;DHT22;4013;49.744;8.118;2023-07-09T07:15:12;25.00;99.90
7936;DHT22;4013;49.744;8.118;2023-07-09T07:17:40;25.10;99.90
7936;DHT22;4013;49.744;8.118;2023-07-09T07:20:10;25.20;99.90
7936;DHT22;4013;49.744;8.118;2023-07-09T07:22:37;25.30;99.90
7936;DHT22;4013;49.744;8.118;2023-07-09T07:25:06;25.40;99.90
7936;DHT22;4013;49.744;8.118;2023-07-09T07:27:33;25.60;99.90
7936;DHT22;4013;49.744;8.118;2023-07-09T07:30:01;25.70;99.90
7936;DHT22;4013;49.744;8.118;2023-07-09T07:32:27;25.80;99.90
7936;DHT22;4013;49.744;8.118;2023-07-09T07:34:54;25.90;99.90
7936;DHT22;4013;49.744;8.118;2023-07-09T07:37:23;25.90;99.90
7936;DHT22;4013;49.744;8.118;2023-07-09T07:39:50;26.00;99.90
7936;DHT22;4013;49.744;8.118;2023-07-09T07:42:17;26.00;99.90
7936;DHT22;4013;49.744;8.118;2023-07-09T07:44:45;26.10;99.90
7936;DHT22;4013;49.744;8.118;2023-07-09T07:47:12;26.10;99.90
7936;DHT22;4013;49.744;8.118;2023-07-09T07:49:39;26.10;99.90
7936;DHT22;4013;49.744;8.118;2023-07-09T07:52:07;26.10;99.90
7936;DHT22;4013;49.744;8.118;2023-07-09T07:54:35;26.30;99.90
7936;DHT22;4013;49.744;8.118;2023-07-09T07:57:03;26.40;99.90
7936;DHT22;4013;49.744;8.118;2023-07-09T07:59:30;26.50;99.90
7936;DHT22;4013;49.744;8.118;2023-07-09T08:02:00;26.50;99.90
7936;DHT22;4013;49.744;8.118;2023-07-09T08:04:27;26.60;99.90
7936;DHT22;4013;49.744;8.118;2023-07-09T08:06:54;26.70;99.90
7936;DHT22;4013;49.744;8.118;2023-07-09T08:09:21;26.80;99.90
7936;DHT22;4013;49.744;8.118;2023-07-09T08:11:50;26.90;99.90
7936;DHT22;4013;49.744;8.118;2023-07-09T08:14:17;26.90;99.90
7936;DHT22;4013;49.744;8.118;2023-07-09T08:16:44;27.00;99.90
7936;DHT22;4013;49.744;8.118;2023-07-09T08:19:11;27.10;99.90
7936;DHT22;4013;49.744;8.118;2023-07-09T08:21:38;27.20;99.90
7936;DHT22;4013;49.744;8.118;2023-07-09T08:24:05;27.30;99.90
7936;DHT22;4013;49.744;8.118;2023-07-09T08:26:33;27.30;99.90
7936;DHT22;4013;49.744;8.118;2023-07-09T08:29:01;27.40;99.90
7936;DHT22;4013;49.744;8.118;2023-07-09T08:31:28;27.50;99.90
7936;DHT22;4013;49.744;8.118;2023-07-09T08:33:55;27.50;99.90
7936;DHT22;4013;49.744;8.118;2023-07-09T08:36:22;27.60;99.90
7936;DHT22;4013;49.744;8.118;2023-07-09T08:38:49;27.70;99.90
7936;DHT22;4013;49.744;8.118;2023-07-09T08:41:35;27.70;99.90
7936;DHT22;4013;49.744;8.118;2023-07-09T08:44:21;27.80;99.90
7936;DHT22;4013;49.744;8.118;2023-07-09T08:46:58;27.80;99.90
7936;DHT22;4013;49.744;8.118;2023-07-09T08:49:33;27.90;99.90
7936;DHT22;4013;49.744;8.118;2023-07-09T08:52:02;27.90;99.90
7936;DHT22;4013;49.744;8.118;2023-07-09T08:54:34;28.00;99.90
7936;DHT22;4013;49.744;8.118;2023-07-09T08:57:13;27.90;99.90
7936;DHT22;4013;49.744;8.118;2023-07-09T08:59:43;28.00;99.90
7936;DHT22;4013;49.744;8.118;2023-07-09T09:02:25;28.00;99.90
7936;DHT22;4013;49.744;8.118;2023-07-09T09:04:54;28.20;99.90
7936;DHT22;4013;49.744;8.118;2023-07-09T09:07:31;28.20;99.90
7936;DHT22;4013;49.744;8.118;2023-07-09T09:10:02;28.30;99.90
7936;DHT22;4013;49.744;8.118;2023-07-09T09:12:33;28.50;99.90
7936;DHT22;4013;49.744;8.118;2023-07-09T09:15:09;28.50;99.90
7936;DHT22;4013;49.744;8.118;2023-07-09T09:17:38;28.60;99.90
7936;DHT22;4013;49.744;8.118;2023-07-09T09:20:09;28.70;99.90
7936;DHT22;4013;49.744;8.118;2023-07-09T09:22:43;28.70;99.90
7936;DHT22;4013;49.744;8.118;2023-07-09T09:25:18;28.70;99.90
7936;DHT22;4013;49.744;8.118;2023-07-09T09:27:48;28.70;99.90
7936;DHT22;4013;49.744;8.118;2023-07-09T09:30:19;28.80;99.90
7936;DHT22;4013;49.744;8.118;2023-07-09T09:32:48;28.90;99.90
7936;DHT22;4013;49.744;8.118;2023-07-09T09:35:19;29.00;99.90
7936;DHT22;4013;49.744;8.118;2023-07-09T09:37:51;29.10;99.90
7936;DHT22;4013;49.744;8.118;2023-07-09T09:40:20;29.10;99.90
7936;DHT22;4013;49.744;8.118;2023-07-09T09:42:49;29.20;99.90
7936;DHT22;4013;49.744;8.118;2023-07-09T09:45:20;29.20;99.90
7936;DHT22;4013;49.744;8.118;2023-07-09T09:47:48;29.30;99.90
7936;DHT22;4013;49.744;8.118;2023-07-09T09:50:16;29.30;99.90
7936;DHT22;4013;49.744;8.118;2023-07-09T09:52:43;29.40;99.90
7936;DHT22;4013;49.744;8.118;2023-07-09T09:55:15;29.50;99.90
7936;DHT22;4013;49.744;8.118;2023-07-09T09:57:47;29.60;99.90
7936;DHT22;4013;49.744;8.118;2023-07-09T10:00:18;29.70;99.90
7936;DHT22;4013;49.744;8.118;2023-07-09T10:02:46;29.70;99.90
7936;DHT22;4013;49.744;8.118;2023-07-09T10:05:14;29.80;99.90
7936;DHT22;4013;49.744;8.118;2023-07-09T10:07:45;30.00;99.90
7936;DHT22;4013;49.744;8.118;2023-07-09T10:10:17;30.00;99.90
7936;DHT22;4013;49.744;8.118;2023-07-09T10:12:50;30.10;99.90
7936;DHT22;4013;49.744;8.118;2023-07-09T10:15:31;30.20;99.90
7936;DHT22;4013;49.744;8.118;2023-07-09T10:18:02;30.20;99.90
7936;DHT22;4013;49.744;8.118;2023-07-09T10:20:36;30.30;99.90
7936;DHT22;4013;49.744;8.118;2023-07-09T10:23:13;30.40;99.90
7936;DHT22;4013;49.744;8.118;2023-07-09T10:25:49;30.50;99.90
7936;DHT22;4013;49.744;8.118;2023-07-09T10:28:32;30.60;99.90
7936;DHT22;4013;49.744;8.118;2023-07-09T10:31:10;30.70;99.90
7936;DHT22;4013;49.744;8.118;2023-07-09T10:33:52;30.70;98.50
7936;DHT22;4013;49.744;8.118;2023-07-09T10:36:32;30.70;99.40
7936;DHT22;4013;49.744;8.118;2023-07-09T10:39:04;30.80;97.40
7936;DHT22;4013;49.744;8.118;2023-07-09T10:41:36;30.80;95.10
7936;DHT22;4013;49.744;8.118;2023-07-09T10:44:10;30.90;95.30
7936;DHT22;4013;49.744;8.118;2023-07-09T10:46:41;30.90;93.60
7936;DHT22;4013;49.744;8.118;2023-07-09T10:49:12;31.00;93.10
7936;DHT22;4013;49.744;8.118;2023-07-09T10:51:49;31.00;91.00
7936;DHT22;4013;49.744;8.118;2023-07-09T10:54:24;31.00;91.50
7936;DHT22;4013;49.744;8.118;2023-07-09T10:56:58;31.10;92.70
7936;DHT22;4013;49.744;8.118;2023-07-09T10:59:29;31.20;93.10
7936;DHT22;4013;49.744;8.118;2023-07-09T11:02:06;31.20;91.80
7936;DHT22;4013;49.744;8.118;2023-07-09T11:04:39;31.30;90.70
7936;DHT22;4013;49.744;8.118;2023-07-09T11:07:12;31.40;90.60
7936;DHT22;4013;49.744;8.118;2023-07-09T11:09:42;31.50;90.00
7936;DHT22;4013;49.744;8.118;2023-07-09T11:12:13;31.50;87.70
7936;DHT22;4013;49.744;8.118;2023-07-09T11:14:46;31.50;85.50
7936;DHT22;4013;49.744;8.118;2023-07-09T11:17:18;31.60;88.60
7936;DHT22;4013;49.744;8.118;2023-07-09T11:19:47;31.70;84.90
7936;DHT22;4013;49.744;8.118;2023-07-09T11:22:16;31.70;80.30
7936;DHT22;4013;49.744;8.118;2023-07-09T11:24:49;31.70;84.90
7936;DHT22;4013;49.744;8.118;2023-07-09T11:27:19;31.70;84.00
7936;DHT22;4013;49.744;8.118;2023-07-09T11:29:48;31.70;83.40
7936;DHT22;4013;49.744;8.118;2023-07-09T11:32:21;31.70;84.10
7936;DHT22;4013;49.744;8.118;2023-07-09T11:34:49;31.80;85.30
7936;DHT22;4013;49.744;8.118;2023-07-09T11:37:16;31.80;82.30
7936;DHT22;4013;49.744;8.118;2023-07-09T11:39:46;31.80;82.30
7936;DHT22;4013;49.744;8.118;2023-07-09T11:42:29;31.80;75.50
7936;DHT22;4013;49.744;8.118;2023-07-09T11:45:06;31.80;77.20
7936;DHT22;4013;49.744;8.118;2023-07-09T11:47:40;31.90;76.40
7936;DHT22;4013;49.744;8.118;2023-07-09T11:50:22;32.10;76.30
7936;DHT22;4013;49.744;8.118;2023-07-09T11:52:53;32.10;80.20
7936;DHT22;4013;49.744;8.118;2023-07-09T11:55:26;32.20;76.40
7936;DHT22;4013;49.744;8.118;2023-07-09T11:57:54;32.30;75.40
7936;DHT22;4013;49.744;8.118;2023-07-09T12:00:21;32.40;71.90
7936;DHT22;4013;49.744;8.118;2023-07-09T12:02:50;32.40;69.50
7936;DHT22;4013;49.744;8.118;2023-07-09T12:05:22;32.40;70.10
7936;DHT22;4013;49.744;8.118;2023-07-09T12:07:51;32.40;75.60
7936;DHT22;4013;49.744;8.118;2023-07-09T12:10:21;32.50;84.60
7936;DHT22;4013;49.744;8.118;2023-07-09T12:12:48;32.70;74.00
7936;DHT22;4013;49.744;8.118;2023-07-09T12:15:22;32.80;81.30
7936;DHT22;4013;49.744;8.118;2023-07-09T12:17:59;32.90;87.70
7936;DHT22;4013;49.744;8.118;2023-07-09T12:20:29;32.90;72.70
7936;DHT22;4013;49.744;8.118;2023-07-09T12:22:57;33.00;80.90
7936;DHT22;4013;49.744;8.118;2023-07-09T12:25:25;32.90;79.10
7936;DHT22;4013;49.744;8.118;2023-07-09T12:27:53;32.80;75.00
7936;DHT22;4013;49.744;8.118;2023-07-09T12:30:20;32.80;86.50
7936;DHT22;4013;49.744;8.118;2023-07-09T12:32:50;32.80;83.70
7936;DHT22;4013;49.744;8.118;2023-07-09T12:35:19;32.70;81.60
7936;DHT22;4013;49.744;8.118;2023-07-09T12:37:48;32.70;83.50
7936;DHT22;4013;49.744;8.118;2023-07-09T12:40:21;32.70;84.00
7936;DHT22;4013;49.744;8.118;2023-07-09T12:42:49;32.80;86.30
7936;DHT22;4013;49.744;8.118;2023-07-09T12:45:17;32.80;81.90
7936;DHT22;4013;49.744;8.118;2023-07-09T12:47:46;32.80;87.50
7936;DHT22;4013;49.744;8.118;2023-07-09T12:50:31;33.00;88.30
7936;DHT22;4013;49.744;8.118;2023-07-09T12:53:02;33.00;82.60
7936;DHT22;4013;49.744;8.118;2023-07-09T12:55:30;33.00;86.50
7936;DHT22;4013;49.744;8.118;2023-07-09T12:58:03;33.00;85.50
7936;DHT22;4013;49.744;8.118;2023-07-09T13:00:30;33.20;86.10
7936;DHT22;4013;49.744;8.118;2023-07-09T13:02:59;33.40;85.70
7936;DHT22;4013;49.744;8.118;2023-07-09T13:05:26;33.50;90.10
7936;DHT22;4013;49.744;8.118;2023-07-09T13:07:59;33.60;89.40
7936;DHT22;4013;49.744;8.118;2023-07-09T13:10:28;33.50;77.50
7936;DHT22;4013;49.744;8.118;2023-07-09T13:13:00;33.50;85.30
7936;DHT22;4013;49.744;8.118;2023-07-09T13:15:30;33.50;78.10
7936;DHT22;4013;49.744;8.118;2023-07-09T13:18:02;33.50;83.80
7936;DHT22;4013;49.744;8.118;2023-07-09T13:20:31;33.50;83.20
7936;DHT22;4013;49.744;8.118;2023-07-09T13:23:00;33.40;90.40
7936;DHT22;4013;49.744;8.118;2023-07-09T13:25:27;33.50;84.90
7936;DHT22;4013;49.744;8.118;2023-07-09T13:27:54;33.40;99.90
7936;DHT22;4013;49.744;8.118;2023-07-09T13:30:21;33.40;99.90
7936;DHT22;4013;49.744;8.118;2023-07-09T13:32:48;33.30;99.90
7936;DHT22;4013;49.744;8.118;2023-07-09T13:35:17;33.30;99.90
7936;DHT22;4013;49.744;8.118;2023-07-09T13:37:45;33.30;99.90
7936;DHT22;4013;49.744;8.118;2023-07-09T13:40:15;33.40;99.90
7936;DHT22;4013;49.744;8.118;2023-07-09T13:42:43;33.40;99.90
7936;DHT22;4013;49.744;8.118;2023-07-09T13:45:20;33.50;99.90
7936;DHT22;4013;49.744;8.118;2023-07-09T13:47:48;33.50;99.90
7936;DHT22;4013;49.744;8.118;2023-07-09T13:50:15;33.40;99.90
7936;DHT22;4013;49.744;8.118;2023-07-09T13:52:43;33.40;99.90
7936;DHT22;4013;49.744;8.118;2023-07-09T13:55:22;33.40;99.90
7936;DHT22;4013;49.744;8.118;2023-07-09T13:57:50;33.50;99.90
7936;DHT22;4013;49.744;8.118;2023-07-09T14:00:18;33.50;99.90
7936;DHT22;4013;49.744;8.118;2023-07-09T14:02:47;33.60;99.90
7936;DHT22;4013;49.744;8.118;2023-07-09T14:05:15;33.50;98.00
7936;DHT22;4013;49.744;8.118;2023-07-09T14:07:42;33.50;99.90
7936;DHT22;4013;49.744;8.118;2023-07-09T14:10:14;33.50;96.10
7936;DHT22;4013;49.744;8.118;2023-07-09T14:12:45;33.50;98.50
7936;DHT22;4013;49.744;8.118;2023-07-09T14:15:15;33.50;98.30
7936;DHT22;4013;49.744;8.118;2023-07-09T14:17:43;33.60;97.00
7936;DHT22;4013;49.744;8.118;2023-07-09T14:20:12;33.60;96.90
7936;DHT22;4013;49.744;8.118;2023-07-09T14:22:40;33.50;98.90
7936;DHT22;4013;49.744;8.118;2023-07-09T14:25:15;33.60;99.90
7936;DHT22;4013;49.744;8.118;2023-07-09T14:27:43;33.50;99.90
7936;DHT22;4013;49.744;8.118;2023-07-09T14:30:14;33.60;99.90
7936;DHT22;4013;49.744;8.118;2023-07-09T14:32:41;33.60;99.90
7936;DHT22;4013;49.744;8.118;2023-07-09T14:35:13;33.60;99.90
7936;DHT22;4013;49.744;8.118;2023-07-09T14:37:41;33.70;99.90
7936;DHT22;4013;49.744;8.118;2023-07-09T14:40:09;33.70;99.90
7936;DHT22;4013;49.744;8.118;2023-07-09T14:42:36;33.80;99.90
7936;DHT22;4013;49.744;8.118;2023-07-09T14:45:15;33.70;99.90
7936;DHT22;4013;49.744;8.118;2023-07-09T14:47:43;33.70;99.90
7936;DHT22;4013;49.744;8.118;2023-07-09T14:50:10;33.70;99.90
7936;DHT22;4013;49.744;8.118;2023-07-09T14:52:37;33.70;99.90
7936;DHT22;4013;49.744;8.118;2023-07-09T14:55:07;33.70;99.90
7936;DHT22;4013;49.744;8.118;2023-07-09T14:57:35;33.70;99.90
7936;DHT22;4013;49.744;8.118;2023-07-09T15:00:02;33.80;99.90
7936;DHT22;4013;49.744;8.118;2023-07-09T15:02:34;33.70;99.90
7936;DHT22;4013;49.744;8.118;2023-07-09T15:05:02;33.70;99.90
7936;DHT22;4013;49.744;8.118;2023-07-09T15:07:30;33.70;99.90
7936;DHT22;4013;49.744;8.118;2023-07-09T15:09:59;33.60;99.90
7936;DHT22;4013;49.744;8.118;2023-07-09T15:12:28;33.60;99.90
7936;DHT22;4013;49.744;8.118;2023-07-09T15:15:00;33.60;99.90
7936;DHT22;4013;49.744;8.118;2023-07-09T15:17:29;33.50;99.90
7936;DHT22;4013;49.744;8.118;2023-07-09T15:19:57;33.40;99.90
7936;DHT22;4013;49.744;8.118;2023-07-09T15:22:29;33.30;99.90
7936;DHT22;4013;49.744;8.118;2023-07-09T15:24:57;33.20;99.90
7936;DHT22;4013;49.744;8.118;2023-07-09T15:27:24;33.20;99.90
7936;DHT22;4013;49.744;8.118;2023-07-09T15:29:52;33.10;99.90
7936;DHT22;4013;49.744;8.118;2023-07-09T15:32:19;33.20;99.90
7936;DHT22;4013;49.744;8.118;2023-07-09T15:34:46;33.20;99.90
7936;DHT22;4013;49.744;8.118;2023-07-09T15:37:16;33.10;99.90
7936;DHT22;4013;49.744;8.118;2023-07-09T15:39:43;33.10;99.90
7936;DHT22;4013;49.744;8.118;2023-07-09T15:42:12;33.00;99.90
7936;DHT22;4013;49.744;8.118;2023-07-09T15:44:39;33.00;99.90
7936;DHT22;4013;49.744;8.118;2023-07-09T15:47:15;32.90;99.90
7936;DHT22;4013;49.744;8.118;2023-07-09T15:49:43;32.90;99.90
7936;DHT22;4013;49.744;8.118;2023-07-09T15:52:10;33.00;99.90
7936;DHT22;4013;49.744;8.118;2023-07-09T15:54:40;33.00;99.90
7936;DHT22;4013;49.744;8.118;2023-07-09T15:57:11;32.90;99.90
7936;DHT22;4013;49.744;8.118;2023-07-09T15:59:40;32.90;99.90
7936;DHT22;4013;49.744;8.118;2023-07-09T16:02:11;32.80;99.90
7936;DHT22;4013;49.744;8.118;2023-07-09T16:04:42;32.90;98.10
7936;DHT22;4013;49.744;8.118;2023-07-09T16:07:10;33.00;99.90
7936;DHT22;4013;49.744;8.118;2023-07-09T16:09:39;32.80;99.30
7936;DHT22;4013;49.744;8.118;2023-07-09T16:12:11;32.10;92.80
7936;DHT22;4013;49.744;8.118;2023-07-09T16:14:39;31.70;62.20
7936;DHT22;4013;49.744;8.118;2023-07-09T16:17:10;31.20;62.10
7936;DHT22;4013;49.744;8.118;2023-07-09T16:19:37;31.00;63.50